createdAt,value
2022-08-17T00:00:40.543Z,2.98
2022-08-17T00:05:48.668Z,2.99
2022-08-17T00:10:56.632Z,2.98
2022-08-17T00:16:04.698Z,2.98
2022-08-17T00:21:11.239Z,2.98
2022-08-17T00:26:19.596Z,2.98
2022-08-17T00:31:28.033Z,2.98
2022-08-17T00:36:36.926Z,2.98
2022-08-17T00:41:44.548Z,2.99
2022-08-17T00:46:51.737Z,2.97
2022-08-17T00:51:59.441Z,2.98
2022-08-17T00:57:07.048Z,2.98
2022-08-17T01:02:15.886Z,2.98
2022-08-17T01:07:23.434Z,2.97
2022-08-17T01:12:31.492Z,2.97
2022-08-17T01:17:38.812Z,2.98
2022-08-17T01:22:47.762Z,2.97
2022-08-17T01:37:06.309Z,2.98
2022-08-17T01:42:12.797Z,2.98
2022-08-17T01:47:22.329Z,2.98
2022-08-17T01:52:28.384Z,2.97
2022-08-17T01:57:36.216Z,2.98
2022-08-17T02:02:43.432Z,2.99
2022-08-17T02:07:50.570Z,2.97
2022-08-17T02:12:58.785Z,2.97
2022-08-17T02:18:06.306Z,2.98
2022-08-17T02:23:13.499Z,2.97
2022-08-17T02:28:21.128Z,2.97
2022-08-17T02:33:27.903Z,2.98
2022-08-17T02:38:36.895Z,2.97
2022-08-17T02:43:44.235Z,2.98
2022-08-17T02:48:52.341Z,2.97
2022-08-17T02:53:59.965Z,2.97
2022-08-17T02:59:07.515Z,2.97
2022-08-17T03:04:14.359Z,2.97
2022-08-17T03:09:22.322Z,2.98
2022-08-17T03:14:30.272Z,2.97
2022-08-17T03:19:37.321Z,2.97
2022-08-17T03:24:44.631Z,2.97
2022-08-17T03:29:52.211Z,2.96
2022-08-17T03:35:00.167Z,2.97
2022-08-17T03:40:07.291Z,2.97
2022-08-17T03:45:14.487Z,2.97
2022-08-17T03:50:22.871Z,2.98
2022-08-17T03:55:31.019Z,2.96
2022-08-17T04:00:37.335Z,2.96
2022-08-17T04:05:45.173Z,2.97
2022-08-17T04:10:54.045Z,2.97
2022-08-17T04:16:02.314Z,2.97
2022-08-17T04:21:10.132Z,2.97
2022-08-17T04:26:17.996Z,2.98
2022-08-17T04:31:25.637Z,2.98
2022-08-17T04:36:34.704Z,2.97
2022-08-17T04:41:44.262Z,2.98
2022-08-17T04:46:51.690Z,2.98
2022-08-17T04:52:07.261Z,3.0
2022-08-17T04:57:15.384Z,3.0
2022-08-17T05:02:22.315Z,2.99
2022-08-17T05:07:29.486Z,3.0
2022-08-17T05:12:37.384Z,3.0
2022-08-17T05:17:44.771Z,2.99
2022-08-17T05:22:52.496Z,3.0
2022-08-17T05:27:59.610Z,3.0
2022-08-17T05:33:07.868Z,3.0
2022-08-17T05:38:15.858Z,3.0
2022-08-17T05:43:24.037Z,3.01
2022-08-17T05:48:38.086Z,3.0
2022-08-17T05:53:45.855Z,3.0
2022-08-17T05:58:54.063Z,3.0
2022-08-17T06:04:01.888Z,3.01
2022-08-17T06:09:09.188Z,3.01
2022-08-17T06:14:16.982Z,3.01
2022-08-17T06:19:23.934Z,3.02
2022-08-17T06:24:31.526Z,3.01
2022-08-17T06:29:38.145Z,3.01
2022-08-17T06:34:45.747Z,3.01
2022-08-17T06:39:53.779Z,3.01
2022-08-17T06:45:00.394Z,3.01
2022-08-17T06:50:07.618Z,3.01
2022-08-17T06:55:15.281Z,3.01
2022-08-17T07:00:22.883Z,3.01
2022-08-17T07:05:31.094Z,3.0
2022-08-17T07:15:40.968Z,3.0
2022-08-17T07:16:43.776Z,3.01
2022-08-17T07:21:49.867Z,3.0
2022-08-17T07:26:57.575Z,3.0
2022-08-17T07:32:06.524Z,3.01
2022-08-17T07:37:13.841Z,3.01
2022-08-17T07:42:22.814Z,3.01
2022-08-17T07:47:30.173Z,3.0
2022-08-17T07:52:37.933Z,3.01
2022-08-17T07:57:45.002Z,3.01
2022-08-17T08:02:53.338Z,3.01
2022-08-17T08:08:02.947Z,3.01
2022-08-17T08:13:11.184Z,3.01
2022-08-17T08:23:47.713Z,3.01
2022-08-17T08:28:55.879Z,3.01
2022-08-17T08:34:03.451Z,3.0
2022-08-17T08:39:12.736Z,3.01
2022-08-17T08:44:20.649Z,3.01
2022-08-17T08:49:28.880Z,3.01
2022-08-17T08:54:37.288Z,3.01
2022-08-17T08:59:45.821Z,3.01
2022-08-17T09:04:54.241Z,3.01
2022-08-17T09:10:01.902Z,3.02
2022-08-17T09:15:09.865Z,3.02
2022-08-17T09:20:16.894Z,3.01
2022-08-17T09:25:24.357Z,3.02
2022-08-17T09:30:32.111Z,3.01
2022-08-17T09:35:40.387Z,3.02
2022-08-17T09:40:48.196Z,3.02
2022-08-17T09:45:56.615Z,3.01
2022-08-17T09:51:04.798Z,3.02
2022-08-17T09:56:12.409Z,3.01
2022-08-17T10:01:20.287Z,3.02
2022-08-17T10:06:27.413Z,3.01
2022-08-17T10:11:35.583Z,3.02
2022-08-17T10:16:43.711Z,3.02
2022-08-17T10:21:52.157Z,3.02
2022-08-17T10:26:59.014Z,3.02
2022-08-17T10:32:06.140Z,3.01
2022-08-17T10:37:13.812Z,3.01
2022-08-17T10:42:22.159Z,3.02
2022-08-17T10:47:29.252Z,3.02
2022-08-17T10:52:38.077Z,3.02
2022-08-17T10:57:45.593Z,3.01
2022-08-17T11:02:54.935Z,3.01
2022-08-17T11:08:02.167Z,3.02
2022-08-17T11:13:09.738Z,3.02
2022-08-17T11:18:18.364Z,3.02
2022-08-17T11:23:26.302Z,3.01
2022-08-17T11:28:33.539Z,3.02
2022-08-17T11:33:41.566Z,3.02
2022-08-17T11:38:50.331Z,3.02
2022-08-17T11:43:58.296Z,3.03
2022-08-17T11:49:06.008Z,3.02
2022-08-17T11:54:14.618Z,3.02
2022-08-17T11:59:27.810Z,3.02
2022-08-17T12:04:34.408Z,3.03
2022-08-17T12:09:42.276Z,3.02
2022-08-17T12:14:48.719Z,3.02
2022-08-17T12:19:55.412Z,3.02
2022-08-17T12:25:02.495Z,3.02
2022-08-17T12:30:10.807Z,3.02
2022-08-17T12:35:17.678Z,3.02
2022-08-17T12:40:24.539Z,3.02
2022-08-17T12:45:32.057Z,3.01
2022-08-17T12:50:39.827Z,3.02
2022-08-17T12:55:46.260Z,3.02
2022-08-17T13:00:54.940Z,3.02
2022-08-17T13:06:01.864Z,3.02
2022-08-17T13:11:09.053Z,3.03
2022-08-17T13:16:16.928Z,3.02
2022-08-17T13:21:25.255Z,3.02
2022-08-17T13:26:33.548Z,3.02
2022-08-17T13:31:41.801Z,3.02
2022-08-17T13:36:49.633Z,3.02
2022-08-17T13:41:56.042Z,3.01
2022-08-17T13:47:03.918Z,3.02
2022-08-17T13:52:12.521Z,3.02
2022-08-17T13:57:20.243Z,3.02
2022-08-17T14:02:27.450Z,3.02
2022-08-17T14:07:34.326Z,3.02
2022-08-17T14:12:42.831Z,3.02
2022-08-17T14:17:50.532Z,3.02
2022-08-17T14:22:58.495Z,3.02
2022-08-17T14:28:05.352Z,3.02
2022-08-17T14:33:13.392Z,3.02
2022-08-17T14:38:22.121Z,3.03
2022-08-17T14:43:29.496Z,3.03
2022-08-17T14:48:36.744Z,3.02
2022-08-17T14:53:45.047Z,3.02
2022-08-17T14:58:52.779Z,3.02
2022-08-17T15:04:04.788Z,3.03
2022-08-17T15:09:12.506Z,3.02
2022-08-17T15:14:19.736Z,3.02
2022-08-17T15:19:27.951Z,3.02
2022-08-17T15:24:34.777Z,3.02
2022-08-17T15:29:42.722Z,3.02
2022-08-17T15:34:51.027Z,3.02
2022-08-17T15:39:58.923Z,3.02
2022-08-17T15:45:06.759Z,3.03
2022-08-17T15:50:19.663Z,3.03
2022-08-17T15:55:27.190Z,3.03
2022-08-17T16:00:34.566Z,3.02
2022-08-17T16:05:41.053Z,3.02
2022-08-17T16:10:49.853Z,3.02
2022-08-17T16:15:56.445Z,3.02
2022-08-17T16:21:04.453Z,3.03
2022-08-17T16:26:12.629Z,3.02
2022-08-17T16:31:21.270Z,3.02
2022-08-17T16:36:28.910Z,3.02
2022-08-17T16:41:37.710Z,3.02
2022-08-17T16:46:44.341Z,3.02
2022-08-17T16:51:52.538Z,3.03
2022-08-17T16:57:00.635Z,3.02
2022-08-17T17:02:08.562Z,3.02
2022-08-17T17:07:15.868Z,3.02
2022-08-17T17:12:23.685Z,3.01
2022-08-17T17:17:31.684Z,3.03
2022-08-17T17:22:39.506Z,3.02
2022-08-17T17:27:46.859Z,3.02
2022-08-17T17:32:54.657Z,3.02
2022-08-17T17:38:02.557Z,3.02
2022-08-17T17:43:09.701Z,3.02
2022-08-17T17:48:16.984Z,3.02
2022-08-17T17:53:25.042Z,3.02
2022-08-17T17:58:32.509Z,3.01
2022-08-17T18:03:40.183Z,3.01
2022-08-17T18:08:47.561Z,3.02
2022-08-17T18:13:55.689Z,3.02
2022-08-17T18:19:03.293Z,3.01
2022-08-17T18:24:10.458Z,3.02
2022-08-17T18:29:17.750Z,3.01
2022-08-17T18:34:24.587Z,3.01
2022-08-17T18:39:33.280Z,3.01
2022-08-17T18:44:40.702Z,3.01
2022-08-17T18:49:48.192Z,3.01
2022-08-17T18:54:56.721Z,3.01
2022-08-17T19:00:10.785Z,3.01
2022-08-17T19:05:17.773Z,3.01
2022-08-17T19:10:24.896Z,3.01
2022-08-17T19:15:31.444Z,3.01
2022-08-17T19:20:38.660Z,3.0
2022-08-17T19:25:46.898Z,3.01
2022-08-17T19:30:53.697Z,3.0
2022-08-17T19:36:01.443Z,3.01
2022-08-17T19:41:10.197Z,2.99
2022-08-17T19:46:17.406Z,3.01
2022-08-17T19:51:26.761Z,3.0
2022-08-17T19:56:34.183Z,3.0
2022-08-17T20:01:42.615Z,3.0
2022-08-17T20:06:52.557Z,2.99
2022-08-17T20:12:00.183Z,3.0
2022-08-17T20:17:06.813Z,3.0
2022-08-17T20:22:14.013Z,2.99
2022-08-17T20:27:22.693Z,3.0
2022-08-17T20:32:30.619Z,3.0
2022-08-17T20:37:37.602Z,3.0
2022-08-17T20:42:45.047Z,3.0
2022-08-17T20:47:53.104Z,3.0
2022-08-17T20:53:01.053Z,3.0
2022-08-17T20:58:09.313Z,3.0
2022-08-17T21:03:16.091Z,3.0
2022-08-17T21:08:23.893Z,3.0
2022-08-17T21:13:31.770Z,3.0
2022-08-17T21:18:39.404Z,2.99
2022-08-17T21:23:47.486Z,3.0
2022-08-17T21:28:54.649Z,2.99
2022-08-17T21:34:01.856Z,2.99
2022-08-17T21:39:09.926Z,3.0
2022-08-17T21:44:19.915Z,2.99
2022-08-17T21:49:26.655Z,2.99
2022-08-17T21:54:33.859Z,2.99
2022-08-17T21:59:41.706Z,2.98
2022-08-17T22:04:49.996Z,2.99
2022-08-17T22:09:58.170Z,2.98
2022-08-17T22:15:05.957Z,3.0
2022-08-17T22:20:14.008Z,3.0
2022-08-17T22:25:22.544Z,2.99
2022-08-17T22:30:29.373Z,3.0
2022-08-17T22:35:37.019Z,2.99
2022-08-17T22:40:45.385Z,3.0
2022-08-17T22:45:53.738Z,3.0
2022-08-17T22:51:01.940Z,3.0
2022-08-17T22:56:09.217Z,3.0
2022-08-17T23:01:16.415Z,2.99
2022-08-17T23:06:23.413Z,2.99
2022-08-17T23:11:31.993Z,2.99
2022-08-17T23:16:40.577Z,2.99
2022-08-17T23:21:48.077Z,2.99
2022-08-17T23:26:55.857Z,2.98
2022-08-17T23:32:04.261Z,2.98
2022-08-17T23:37:11.340Z,2.98
2022-08-17T23:42:19.706Z,2.98
2022-08-17T23:47:27.821Z,2.98
2022-08-17T23:52:35.856Z,2.98
2022-08-17T23:57:44.133Z,3.0
